Time;durP1;ratioP1;P1;durP2;ratioP2;P2;SDS_P1;SDS_P2;PMS_P1;PMS_P2;Temp;Humidity;BMP_temperature;BMP_pressure;BME280_temperature;BME280_humidity;BME280_pressure;Samples;Min_cycle;Max_cycle;Signal;HPM_P1;HPM_P2
2024/04/25 00:00:54;;;;;;;2.72;1.30;;;9.10;81.30;;;;;;5331744;26;111752;-58
2024/04/25 00:03:19;;;;;;;2.67;0.70;;;9.30;80.80;;;;;;5332581;26;110823;-57
2024/04/25 00:05:45;;;;;;;0.85;0.47;;;9.30;80.90;;;;;;5332712;26;110638;-57
2024/04/25 00:08:11;;;;;;;0.60;0.60;;;9.30;81.10;;;;;;5331823;26;113776;-58
2024/04/25 00:10:38;;;;;;;0.52;0.52;;;9.20;81.50;;;;;;5331612;26;111648;-57
2024/04/25 00:13:04;;;;;;;0.73;0.43;;;9.30;81.10;;;;;;5332496;26;110669;-57
2024/04/25 00:15:29;;;;;;;1.13;0.63;;;9.20;80.90;;;;;;5332968;26;110592;-57
2024/04/25 00:17:55;;;;;;;9.88;6.70;;;9.30;81.10;;;;;;5331428;26;112213;-57
2024/04/25 00:20:21;;;;;;;8.38;4.82;;;9.40;81.30;;;;;;5331248;26;110639;-57
2024/04/25 00:22:47;;;;;;;2.65;1.10;;;9.40;81.30;;;;;;5332678;26;110923;-58
2024/04/25 00:25:13;;;;;;;0.68;0.68;;;9.30;81.20;;;;;;5332802;26;110845;-57
2024/04/25 00:27:38;;;;;;;1.00;0.75;;;9.30;81.30;;;;;;5331469;26;112492;-57
2024/04/25 00:30:05;;;;;;;1.00;0.90;;;9.40;81.40;;;;;;5331226;26;110522;-58
2024/04/25 00:32:30;;;;;;;1.02;0.80;;;9.30;81.60;;;;;;5332763;26;110359;-58
2024/04/25 00:35:00;;;;;;;0.85;0.70;;;9.30;81.50;;;;;;5332744;26;112738;-57
2024/04/25 00:37:26;;;;;;;0.80;0.80;;;9.30;81.50;;;;;;5331749;26;111653;-58
2024/04/25 00:39:52;;;;;;;1.05;0.95;;;9.30;81.40;;;;;;5331414;26;111676;-58
2024/04/25 00:42:24;;;;;;;1.05;0.80;;;9.40;80.60;;;;;;5332250;26;110831;-57
2024/04/25 00:44:50;;;;;;;0.80;0.80;;;9.30;80.60;;;;;;5332474;26;110678;-57
2024/04/25 00:47:19;;;;;;;1.05;0.70;;;9.30;80.70;;;;;;5330890;26;112477;-57
2024/04/25 00:49:46;;;;;;;0.70;0.70;;;9.30;79.00;;;;;;5331487;26;110874;-57
2024/04/25 00:52:15;;;;;;;3.47;0.50;;;9.20;79.00;;;;;;5332398;26;110729;-57
2024/04/25 00:54:42;;;;;;;0.60;0.60;;;9.20;79.50;;;;;;5332733;26;110553;-58
2024/04/25 00:57:10;;;;;;;0.95;0.65;;;9.10;79.00;;;;;;5331178;26;111109;-58
2024/04/25 00:59:39;;;;;;;0.60;0.60;;;8.90;79.30;;;;;;5331169;26;110407;-57
2024/04/25 01:02:08;;;;;;;0.60;0.60;;;8.80;79.20;;;;;;5332381;26;110805;-58
2024/04/25 01:04:35;;;;;;;0.45;0.40;;;8.80;79.20;;;;;;5330484;26;110736;-58
2024/04/25 01:07:03;;;;;;;0.68;0.68;;;8.90;78.50;;;;;;5331028;26;112409;-57
2024/04/25 01:09:29;;;;;;;1.52;0.60;;;8.80;79.20;;;;;;5330995;26;110450;-58
2024/04/25 01:11:56;;;;;;;0.68;0.68;;;8.90;78.30;;;;;;5332022;26;111587;-58
2024/04/25 01:14:22;;;;;;;0.70;0.70;;;8.80;78.60;;;;;;5332218;26;110671;-57
2024/04/25 01:16:48;;;;;;;1.35;0.70;;;8.70;79.10;;;;;;5330699;26;112449;-57
2024/04/25 01:19:14;;;;;;;1.05;0.75;;;8.80;79.40;;;;;;5331070;26;111509;-58
2024/04/25 01:21:41;;;;;;;0.60;0.43;;;8.80;79.00;;;;;;5331879;26;110463;-57
2024/04/25 01:24:08;;;;;;;0.60;0.60;;;8.80;79.80;;;;;;5332210;26;110723;-57
2024/04/25 01:26:35;;;;;;;1.00;0.75;;;8.70;78.80;;;;;;5330895;26;112461;-57
2024/04/25 01:29:05;;;;;;;0.82;0.60;;;8.70;79.30;;;;;;5330951;26;111815;-57
2024/04/25 01:31:31;;;;;;;0.93;0.90;;;8.70;79.70;;;;;;5332397;26;111586;-57
2024/04/25 01:33:58;;;;;;;1.10;1.02;;;8.70;80.00;;;;;;5331367;26;110577;-57
2024/04/25 01:36:24;;;;;;;0.95;0.75;;;8.80;79.90;;;;;;5330986;26;111140;-57
2024/04/25 01:38:50;;;;;;;2.08;0.95;;;8.60;79.80;;;;;;5330596;26;110559;-57
2024/04/25 01:41:15;;;;;;;1.13;1.00;;;8.60;80.50;;;;;;5331709;26;110784;-58
2024/04/25 01:43:41;;;;;;;1.20;0.90;;;8.70;81.10;;;;;;5331825;26;110618;-57
2024/04/25 01:46:07;;;;;;;1.40;0.77;;;8.70;81.20;;;;;;5330730;26;111191;-57
2024/04/25 01:48:33;;;;;;;1.05;1.05;;;8.60;81.50;;;;;;5330817;26;111740;-58
2024/04/25 01:50:59;;;;;;;1.05;0.93;;;8.40;82.00;;;;;;5331624;26;110849;-57
2024/04/25 01:53:25;;;;;;;1.10;1.00;;;8.60;82.70;;;;;;5331832;26;110547;-57
2024/04/25 01:55:51;;;;;;;1.25;1.15;;;8.70;82.00;;;;;;5330678;26;112911;-57
2024/04/25 01:58:17;;;;;;;1.73;1.00;;;8.60;82.70;;;;;;5330493;26;111531;-57
2024/04/25 02:00:42;;;;;;;1.75;1.00;;;8.60;82.40;;;;;;5331305;26;110307;-57
2024/04/25 02:03:08;;;;;;;1.00;1.00;;;8.40;82.70;;;;;;5331936;26;111443;-57
2024/04/25 02:05:34;;;;;;;1.05;0.95;;;8.40;82.60;;;;;;5330265;26;111342;-57
2024/04/25 02:07:59;;;;;;;1.30;1.13;;;8.70;82.10;;;;;;5330226;26;111733;-58
2024/04/25 02:10:25;;;;;;;1.38;1.10;;;8.70;82.00;;;;;;5330008;26;110986;-57
2024/04/25 02:12:50;;;;;;;0.80;0.80;;;8.60;82.10;;;;;;5331185;26;110720;-57
2024/04/25 02:15:16;;;;;;;1.95;1.10;;;8.60;82.60;;;;;;5330428;26;111516;-57
2024/04/25 02:17:42;;;;;;;1.42;1.00;;;8.50;82.50;;;;;;5329565;26;111700;-57
2024/04/25 02:25:14;;;;;;;1.70;1.00;;;8.60;82.30;;;;;;5331328;26;110723;-57
2024/04/25 02:25:40;;;;;;;1.30;0.98;;;8.50;82.50;;;;;;5330138;26;111396;-57
2024/04/25 02:28:07;;;;;;;1.15;1.05;;;8.70;81.30;;;;;;5329938;26;111707;-57
2024/04/25 02:30:33;;;;;;;0.80;0.80;;;8.70;81.00;;;;;;5330930;26;110380;-57
2024/04/25 02:32:59;;;;;;;1.77;1.00;;;8.80;80.50;;;;;;5331588;26;110618;-58
2024/04/25 02:35:25;;;;;;;1.08;0.75;;;8.70;80.20;;;;;;5329950;26;111064;-57
2024/04/25 02:37:51;;;;;;;0.70;0.70;;;8.60;79.90;;;;;;5316080;26;111639;-57
2024/04/25 02:40:16;;;;;;;3.05;0.73;;;8.60;80.40;;;;;;5305582;26;110448;-57
2024/04/25 02:42:42;;;;;;;1.30;0.90;;;8.60;80.60;;;;;;5325210;26;113624;-58
2024/04/25 02:45:09;;;;;;;0.90;0.80;;;8.50;81.00;;;;;;5329604;26;111187;-58
2024/04/25 02:47:35;;;;;;;0.75;0.75;;;8.40;80.70;;;;;;5329358;26;112775;-56
2024/04/25 02:50:01;;;;;;;2.08;0.80;;;8.50;81.10;;;;;;5330491;26;111513;-57
2024/04/25 02:52:27;;;;;;;1.00;0.85;;;8.60;80.50;;;;;;5330688;26;110647;-57
2024/04/25 02:54:55;;;;;;;0.80;0.80;;;8.60;81.80;;;;;;5328955;26;112400;-58
2024/04/25 02:57:24;;;;;;;0.80;0.70;;;8.50;81.80;;;;;;5329335;26;111647;-57
2024/04/25 02:59:49;;;;;;;1.60;1.00;;;8.50;82.20;;;;;;5330057;26;110357;-57
2024/04/25 03:02:15;;;;;;;1.58;0.82;;;8.50;82.10;;;;;;5330580;26;110625;-57
2024/04/25 03:04:41;;;;;;;2.13;1.02;;;8.40;82.30;;;;;;5329088;26;112669;-58
2024/04/25 03:07:07;;;;;;;1.20;1.10;;;8.40;82.40;;;;;;5329213;26;112153;-57
2024/04/25 03:09:32;;;;;;;1.48;1.20;;;8.30;82.20;;;;;;5330091;26;110807;-58
2024/04/25 03:11:58;;;;;;;1.60;1.50;;;8.40;83.10;;;;;;5329867;26;110623;-58
2024/04/25 03:14:24;;;;;;;1.50;1.40;;;8.30;82.90;;;;;;5329018;26;112426;-58
2024/04/25 03:16:49;;;;;;;2.40;1.73;;;8.30;82.80;;;;;;5328829;26;111537;-58
2024/04/25 03:19:15;;;;;;;1.75;1.65;;;8.30;83.00;;;;;;5329790;26;111172;-57
2024/04/25 03:21:41;;;;;;;1.55;1.45;;;8.30;83.10;;;;;;5330011;26;110566;-57
2024/04/25 03:24:07;;;;;;;1.63;1.52;;;8.30;82.90;;;;;;5329089;26;111082;-57
2024/04/25 03:26:32;;;;;;;2.30;1.73;;;8.30;83.30;;;;;;5328841;26;111613;-58
2024/04/25 03:28:58;;;;;;;2.72;1.67;;;8.40;83.60;;;;;;5331742;26;110616;-57
2024/04/25 03:31:24;;;;;;;2.00;1.83;;;8.40;83.50;;;;;;5333850;26;110893;-57
2024/04/25 03:33:49;;;;;;;3.13;2.10;;;8.40;83.40;;;;;;5331600;26;112775;-57
2024/04/25 03:36:15;;;;;;;2.00;1.90;;;8.40;83.20;;;;;;5331831;26;110825;-58
2024/04/25 03:38:41;;;;;;;1.88;1.67;;;8.40;84.00;;;;;;5332802;26;110834;-57
2024/04/25 03:41:16;;;;;;;2.88;2.10;;;8.30;83.90;;;;;;5333209;26;110567;-57
2024/04/25 03:43:42;;;;;;;1.90;1.80;;;8.30;84.20;;;;;;5331922;26;112529;-57
2024/04/25 03:46:08;;;;;;;2.38;2.15;;;8.40;83.90;;;;;;5331731;26;110789;-57
2024/04/25 03:48:34;;;;;;;2.22;2.03;;;8.40;83.90;;;;;;5332678;26;110574;-57
2024/04/25 03:50:59;;;;;;;3.40;2.55;;;8.40;83.70;;;;;;5332895;26;110720;-58
2024/04/25 03:53:25;;;;;;;2.35;2.22;;;8.50;84.10;;;;;;5332139;26;111342;-57
2024/04/25 03:55:50;;;;;;;2.70;2.50;;;8.40;84.00;;;;;;5331683;26;110840;-57
2024/04/25 03:58:16;;;;;;;2.33;2.13;;;8.40;84.20;;;;;;5332921;26;110360;-57
2024/04/25 04:00:42;;;;;;;3.38;2.15;;;8.40;84.40;;;;;;5332769;26;110507;-57
2024/04/25 04:03:07;;;;;;;2.75;2.55;;;8.50;83.90;;;;;;5331542;26;111285;-57
2024/04/25 04:05:33;;;;;;;2.67;2.47;;;8.40;84.00;;;;;;5331883;26;111754;-57
2024/04/25 04:07:59;;;;;;;3.38;2.50;;;8.30;83.40;;;;;;5332538;26;110739;-57
2024/04/25 04:10:25;;;;;;;3.58;2.92;;;8.30;83.40;;;;;;5332824;26;110503;-57
2024/04/25 04:12:50;;;;;;;2.88;2.65;;;8.40;84.20;;;;;;5331475;26;112443;-57
2024/04/25 04:15:16;;;;;;;3.65;2.45;;;8.40;84.20;;;;;;5331516;26;110553;-56
2024/04/25 04:17:42;;;;;;;3.10;2.80;;;8.40;83.80;;;;;;5332614;26;110596;-57
2024/04/25 04:20:08;;;;;;;2.92;2.72;;;8.40;84.20;;;;;;5332577;26;110610;-57
2024/04/25 04:22:33;;;;;;;2.70;2.50;;;8.50;84.10;;;;;;5331612;26;112423;-57
2024/04/25 04:24:59;;;;;;;3.92;2.33;;;8.60;84.20;;;;;;5331402;26;110875;-57
2024/04/25 04:27:25;;;;;;;2.75;2.30;;;8.60;83.20;;;;;;5332146;26;110704;-57
2024/04/25 04:29:50;;;;;;;3.15;2.85;;;8.50;83.50;;;;;;5332578;26;111233;-57
2024/04/25 04:32:16;;;;;;;2.90;2.60;;;8.40;83.70;;;;;;5331770;26;111212;-57
2024/04/25 04:34:44;;;;;;;2.65;2.45;;;8.40;84.30;;;;;;5331469;26;111760;-60
2024/04/25 04:37:11;;;;;;;3.78;2.72;;;8.50;83.90;;;;;;5330369;26;110997;-57
2024/04/25 04:39:37;;;;;;;2.92;2.72;;;8.50;84.00;;;;;;5332501;26;110589;-57
2024/04/25 04:42:03;;;;;;;2.97;2.78;;;8.40;83.60;;;;;;5331520;26;112233;-57
2024/04/25 04:44:28;;;;;;;4.18;2.45;;;8.40;83.90;;;;;;5331425;26;111803;-57
2024/04/25 04:46:54;;;;;;;3.70;2.30;;;8.50;83.60;;;;;;5332187;26;110842;-57
2024/04/25 04:49:20;;;;;;;5.00;2.22;;;8.40;83.50;;;;;;5332143;26;110947;-57
2024/04/25 04:51:45;;;;;;;2.85;2.08;;;8.40;83.20;;;;;;5331389;26;111633;-57
2024/04/25 04:54:12;;;;;;;3.13;2.15;;;8.40;82.90;;;;;;5331062;26;110860;-57
2024/04/25 04:56:39;;;;;;;2.47;2.28;;;8.50;82.60;;;;;;5332338;26;110988;-57
2024/04/25 04:59:05;;;;;;;2.42;2.22;;;8.70;82.60;;;;;;5332254;26;110671;-57
2024/04/25 05:01:31;;;;;;;2.70;2.40;;;8.60;82.40;;;;;;5331090;26;111019;-57
2024/04/25 05:03:56;;;;;;;2.35;2.15;;;8.60;82.80;;;;;;5331394;26;110760;-57
2024/04/25 05:06:22;;;;;;;2.05;1.95;;;8.60;82.80;;;;;;5331958;26;110426;-57
2024/04/25 05:08:50;;;;;;;2.03;1.83;;;8.60;82.30;;;;;;5332385;26;110722;-57
2024/04/25 05:11:16;;;;;;;2.03;1.92;;;8.70;82.00;;;;;;5330847;26;113536;-57
2024/04/25 05:13:41;;;;;;;1.75;1.65;;;8.80;82.10;;;;;;5330725;26;111809;-56
2024/04/25 05:16:08;;;;;;;2.15;1.60;;;8.80;82.30;;;;;;5331745;26;110566;-57
2024/04/25 05:18:34;;;;;;;1.95;1.85;;;8.80;81.60;;;;;;5332097;26;110607;-57
2024/04/25 05:21:00;;;;;;;3.05;2.85;;;8.80;81.70;;;;;;5331152;26;111290;-57
2024/04/25 05:23:25;;;;;;;2.58;1.80;;;8.90;81.50;;;;;;5330848;26;111723;-57
2024/04/25 05:25:51;;;;;;;2.85;1.83;;;8.90;81.70;;;;;;5330023;26;110466;-57
2024/04/25 05:28:17;;;;;;;2.03;1.83;;;8.90;81.60;;;;;;5332063;26;110805;-57
2024/04/25 05:30:43;;;;;;;2.25;1.83;;;9.00;81.30;;;;;;5331395;26;111280;-57
2024/04/25 05:33:09;;;;;;;2.05;1.50;;;9.00;80.90;;;;;;5329645;26;111196;-57
2024/04/25 05:35:34;;;;;;;1.40;1.30;;;9.00;80.60;;;;;;5327487;26;111262;-57
2024/04/25 05:38:00;;;;;;;1.60;1.50;;;9.10;80.00;;;;;;5311674;26;110570;-57
2024/04/25 05:40:31;;;;;;;3.03;1.50;;;9.00;80.70;;;;;;5330575;26;111812;-57
2024/04/25 05:42:56;;;;;;;1.40;1.30;;;9.10;79.50;;;;;;5330719;26;111122;-57
2024/04/25 05:45:22;;;;;;;1.67;1.48;;;9.10;80.20;;;;;;5331749;26;110954;-57
2024/04/25 05:47:48;;;;;;;1.75;1.30;;;9.20;80.50;;;;;;5331770;26;110487;-57
2024/04/25 05:50:14;;;;;;;1.38;1.27;;;9.20;79.60;;;;;;5330369;26;111077;-57
2024/04/25 05:52:40;;;;;;;1.20;1.10;;;9.20;79.90;;;;;;5328337;26;110572;-57
2024/04/25 05:55:07;;;;;;;1.73;1.30;;;9.20;79.50;;;;;;5331814;26;111067;-56
2024/04/25 05:57:33;;;;;;;1.75;1.40;;;9.10;79.50;;;;;;5331682;26;110491;-57
2024/04/25 05:59:59;;;;;;;4.70;1.60;;;9.10;79.60;;;;;;5330780;26;113110;-57
2024/04/25 06:02:25;;;;;;;1.30;1.20;;;9.00;79.40;;;;;;5330338;26;111856;-57
2024/04/25 06:04:52;;;;;;;1.30;1.20;;;9.00;80.40;;;;;;5331224;26;110378;-57
2024/04/25 06:07:18;;;;;;;1.63;1.45;;;9.10;79.60;;;;;;5331683;26;110628;-57
2024/04/25 06:09:43;;;;;;;1.85;1.45;;;9.10;79.40;;;;;;5330256;26;112523;-57
2024/04/25 06:12:09;;;;;;;2.33;1.38;;;9.00;79.10;;;;;;5330384;26;110541;-56
2024/04/25 06:14:35;;;;;;;2.17;1.60;;;8.80;78.80;;;;;;5330962;26;110495;-57
2024/04/25 06:17:03;;;;;;;2.35;1.45;;;8.80;80.10;;;;;;5331473;26;110852;-57
2024/04/25 06:19:29;;;;;;;1.48;1.27;;;8.90;79.90;;;;;;5330288;26;111137;-57
2024/04/25 06:21:55;;;;;;;3.55;1.33;;;8.90;79.70;;;;;;5330119;26;111654;-57
2024/04/25 06:24:21;;;;;;;1.83;1.63;;;8.90;79.80;;;;;;5331220;26;110750;-57
2024/04/25 06:26:47;;;;;;;1.45;1.35;;;8.80;79.80;;;;;;5306169;26;110940;-57
2024/04/25 06:29:13;;;;;;;4.28;2.00;;;8.80;78.90;;;;;;5330199;26;112361;-57
2024/04/25 06:31:39;;;;;;;3.28;1.70;;;8.80;78.00;;;;;;5330588;26;111514;-57
2024/04/25 06:34:08;;;;;;;2.70;2.03;;;8.90;77.80;;;;;;5306154;26;110540;-58
2024/04/25 06:36:34;;;;;;;3.20;2.05;;;8.90;77.50;;;;;;5331026;26;111016;-57
2024/04/25 06:39:01;;;;;;;2.13;1.45;;;8.90;78.80;;;;;;5329679;26;112348;-57
2024/04/25 06:41:27;;;;;;;1.27;1.17;;;9.00;79.00;;;;;;5329848;26;111679;-57
2024/04/25 06:43:53;;;;;;;1.38;1.27;;;8.90;78.50;;;;;;5330629;26;110789;-57
2024/04/25 06:46:19;;;;;;;2.20;2.00;;;8.90;79.30;;;;;;5330941;26;110752;-57
2024/04/25 06:48:46;;;;;;;3.08;1.98;;;8.90;79.50;;;;;;5329718;26;111125;-57
2024/04/25 06:51:12;;;;;;;2.13;1.70;;;9.10;78.80;;;;;;5329295;26;110824;-57
2024/04/25 06:53:38;;;;;;;1.40;1.30;;;9.40;77.80;;;;;;5330487;26;110375;-57
2024/04/25 06:56:04;;;;;;;1.40;1.30;;;9.70;76.40;;;;;;5330571;26;111039;-57
2024/04/25 06:58:30;;;;;;;1.67;1.05;;;10.10;75.60;;;;;;5329622;26;112413;-57
2024/04/25 07:00:56;;;;;;;0.70;0.70;;;10.00;74.10;;;;;;5329434;26;110551;-57
2024/04/25 07:03:22;;;;;;;0.60;0.60;;;10.10;72.60;;;;;;5331493;26;110526;-57
2024/04/25 07:05:48;;;;;;;0.80;0.80;;;10.40;71.60;;;;;;5333517;26;110545;-57
2024/04/25 07:08:14;;;;;;;0.85;0.85;;;10.60;71.10;;;;;;5332373;26;112436;-57
2024/04/25 07:10:40;;;;;;;6.18;1.10;;;10.60;71.90;;;;;;5332336;26;112069;-57
2024/04/25 07:13:06;;;;;;;3.38;1.10;;;10.80;71.20;;;;;;5333037;26;111536;-57
2024/04/25 07:15:32;;;;;;;6.38;0.80;;;11.10;70.40;;;;;;5333036;26;111069;-57
2024/04/25 07:18:03;;;;;;;3.03;0.65;;;11.00;66.00;;;;;;5332073;26;112448;-57
2024/04/25 07:20:29;;;;;;;0.50;0.50;;;11.20;65.40;;;;;;5332126;26;111645;-57
2024/04/25 07:22:54;;;;;;;0.60;0.60;;;11.40;68.10;;;;;;5333269;26;110429;-57
2024/04/25 07:25:21;;;;;;;2.05;0.90;;;11.60;66.90;;;;;;5333073;26;110602;-57
2024/04/25 07:27:47;;;;;;;1.75;0.82;;;11.50;64.90;;;;;;5332232;26;112607;-57
2024/04/25 07:30:13;;;;;;;2.22;0.70;;;11.40;63.20;;;;;;5331889;26;111528;-58
2024/04/25 07:32:39;;;;;;;1.92;0.80;;;11.60;65.70;;;;;;5333573;26;110356;-57
2024/04/25 07:35:05;;;;;;;0.70;0.70;;;11.90;65.30;;;;;;5332799;26;110459;-57
2024/04/25 07:37:35;;;;;;;3.70;0.90;;;11.90;64.00;;;;;;5331761;26;113009;-56
2024/04/25 07:40:01;;;;;;;2.50;0.77;;;12.10;64.20;;;;;;5331696;26;110507;-57
2024/04/25 07:42:27;;;;;;;1.55;0.40;;;12.20;62.90;;;;;;5332643;26;110749;-57
2024/04/25 07:44:54;;;;;;;0.57;0.57;;;12.30;62.40;;;;;;5332564;26;110530;-57
2024/04/25 07:47:19;;;;;;;1.13;0.60;;;12.30;64.00;;;;;;5330340;26;112464;-58
2024/04/25 07:49:45;;;;;;;2.05;0.70;;;12.40;61.20;;;;;;5331773;26;111869;-58
2024/04/25 07:52:11;;;;;;;1.00;0.60;;;12.60;61.80;;;;;;5332357;26;110638;-57
2024/04/25 07:54:36;;;;;;;1.02;0.60;;;12.90;61.10;;;;;;5332818;26;110540;-57
2024/04/25 07:57:02;;;;;;;0.52;0.50;;;12.80;59.00;;;;;;5331960;26;111225;-57
2024/04/25 07:59:28;;;;;;;0.40;0.40;;;12.90;58.80;;;;;;5318905;26;111844;-58
2024/04/25 08:01:54;;;;;;;0.63;0.47;;;13.00;58.80;;;;;;5332336;26;110572;-57
2024/04/25 08:04:19;;;;;;;3.42;1.35;;;13.10;58.90;;;;;;5331712;26;110724;-57
2024/04/25 08:06:45;;;;;;;0.65;0.50;;;13.40;60.70;;;;;;5331554;26;112412;-57
2024/04/25 08:09:11;;;;;;;3.35;0.70;;;13.40;58.90;;;;;;5329705;26;113403;-57
2024/04/25 08:11:36;;;;;;;2.15;0.60;;;13.90;59.00;;;;;;5332667;26;110386;-57
2024/04/25 08:14:02;;;;;;;3.03;1.10;;;14.10;56.80;;;;;;5331708;26;110615;-56
2024/04/25 08:16:29;;;;;;;0.65;0.50;;;14.10;56.50;;;;;;5331255;26;112344;-56
2024/04/25 08:18:55;;;;;;;0.68;0.50;;;13.90;56.10;;;;;;5330434;26;110637;-54
2024/04/25 08:21:21;;;;;;;1.05;0.47;;;13.30;55.40;;;;;;5312366;26;110466;-54
2024/04/25 08:23:47;;;;;;;1.23;0.65;;;13.40;57.10;;;;;;5331098;26;113038;-54
2024/04/25 08:26:13;;;;;;;1.73;0.68;;;13.40;55.60;;;;;;5331508;26;112361;-54
2024/04/25 08:28:39;;;;;;;0.60;0.60;;;13.10;55.00;;;;;;5328815;26;110656;-54
2024/04/25 08:31:06;;;;;;;4.05;0.90;;;13.50;57.30;;;;;;5332257;26;110350;-55
2024/04/25 08:33:32;;;;;;;1.75;1.25;;;13.90;55.20;;;;;;5332911;26;110611;-55
2024/04/25 08:35:58;;;;;;;2.22;0.70;;;14.20;55.20;;;;;;5328856;26;112490;-55
2024/04/25 08:38:25;;;;;;;2.13;0.57;;;14.20;53.80;;;;;;5331404;26;110902;-55
2024/04/25 08:40:52;;;;;;;1.63;0.50;;;14.30;55.60;;;;;;5332025;26;110991;-54
2024/04/25 08:43:18;;;;;;;0.60;0.50;;;14.40;52.10;;;;;;5331476;26;110569;-55
2024/04/25 08:45:44;;;;;;;1.50;0.68;;;14.40;51.70;;;;;;5330954;26;111630;-55
2024/04/25 08:48:13;;;;;;;1.75;0.60;;;14.40;52.10;;;;;;5331395;26;111729;-55
2024/04/25 08:50:40;;;;;;;0.77;0.70;;;14.40;51.40;;;;;;5331566;26;110734;-54
2024/04/25 08:53:07;;;;;;;1.35;0.70;;;14.50;51.50;;;;;;5332238;26;110758;-54
2024/04/25 08:55:35;;;;;;;2.35;0.80;;;14.40;52.20;;;;;;5326076;26;110948;-55
2024/04/25 08:58:01;;;;;;;5.18;1.00;;;14.70;51.60;;;;;;5326006;26;110855;-55
2024/04/25 09:00:27;;;;;;;5.05;1.60;;;14.60;53.00;;;;;;5330366;26;110656;-55
2024/04/25 09:02:55;;;;;;;1.45;0.55;;;14.80;51.70;;;;;;5331775;26;110651;-55
2024/04/25 09:05:23;;;;;;;0.82;0.50;;;15.10;52.20;;;;;;5330571;26;112441;-55
2024/04/25 09:07:49;;;;;;;2.50;0.60;;;15.40;51.70;;;;;;5327549;26;111725;-54
2024/04/25 09:10:15;;;;;;;1.15;0.60;;;15.40;49.70;;;;;;5330930;26;110899;-55
2024/04/25 09:12:41;;;;;;;0.90;0.60;;;15.50;49.70;;;;;;5331676;26;110528;-55
2024/04/25 09:15:07;;;;;;;0.50;0.50;;;15.60;49.80;;;;;;5330785;26;112507;-54
2024/04/25 09:17:33;;;;;;;1.08;0.77;;;15.70;49.30;;;;;;5330453;26;110344;-55
2024/04/25 09:19:58;;;;;;;2.15;0.80;;;15.40;49.50;;;;;;5331717;26;110689;-54
2024/04/25 09:22:25;;;;;;;2.28;0.50;;;15.60;50.60;;;;;;5307649;26;110672;-55
2024/04/25 09:24:51;;;;;;;0.57;0.50;;;15.50;48.00;;;;;;5330964;26;111140;-55
2024/04/25 09:27:18;;;;;;;0.98;0.70;;;15.80;46.80;;;;;;5329530;26;111966;-55
2024/04/25 09:29:45;;;;;;;0.70;0.60;;;15.80;46.50;;;;;;5331797;26;110734;-55
2024/04/25 09:32:17;;;;;;;0.80;0.75;;;15.90;47.80;;;;;;5332534;26;110521;-54
2024/04/25 09:34:43;;;;;;;;;;;16.30;48.70;;;;;;5331679;26;111008;-55
2024/04/25 09:37:09;;;;;;;1.25;0.60;;;16.70;46.70;;;;;;5332159;26;111620;-55
2024/04/25 09:39:35;;;;;;;0.68;0.68;;;16.40;48.40;;;;;;5331765;26;110490;-55
2024/04/25 09:42:01;;;;;;;2.08;0.98;;;16.80;48.40;;;;;;5331784;26;110819;-55
2024/04/25 09:44:27;;;;;;;1.67;0.80;;;17.00;47.10;;;;;;5330758;26;112908;-55
2024/04/25 09:47:00;;;;;;;0.70;0.70;;;17.30;46.50;;;;;;5330753;26;110793;-55
2024/04/25 09:49:31;;;;;;;0.95;0.43;;;17.50;46.60;;;;;;5329915;26;113842;-55
2024/04/25 09:52:20;;;;;;;0.50;0.50;;;17.60;43.00;;;;;;5332183;26;111121;-55
2024/04/25 09:54:47;;;;;;;1.13;0.73;;;16.90;42.10;;;;;;5330545;26;111108;-55
2024/04/25 09:57:17;;;;;;;0.75;0.73;;;17.30;45.00;;;;;;5330817;26;111104;-55
2024/04/25 09:59:43;;;;;;;0.75;0.73;;;18.00;45.00;;;;;;5331594;26;110858;-55
2024/04/25 10:02:19;;;;;;;0.52;0.52;;;17.60;41.50;;;;;;5331804;26;110553;-55
2024/04/25 10:04:45;;;;;;;2.20;0.70;;;17.50;42.00;;;;;;5330358;26;112437;-55
2024/04/25 10:07:14;;;;;;;1.48;0.65;;;17.50;43.40;;;;;;5330307;26;111629;-55
2024/04/25 10:09:40;;;;;;;1.98;1.45;;;17.70;42.10;;;;;;5331086;26;110791;-55
2024/04/25 10:12:06;;;;;;;0.88;0.77;;;17.80;41.80;;;;;;5331678;26;110559;-55
2024/04/25 10:14:35;;;;;;;0.52;0.52;;;17.90;42.90;;;;;;5330498;26;111536;-55
2024/04/25 10:17:01;;;;;;;0.52;0.50;;;17.40;41.50;;;;;;5330569;26;110448;-55
2024/04/25 10:19:38;;;;;;;0.63;0.57;;;16.20;42.30;;;;;;5331258;26;111104;-55
2024/04/25 10:22:06;;;;;;;1.35;0.93;;;17.30;40.90;;;;;;5331198;26;110766;-55
2024/04/25 10:24:41;;;;;;;3.60;2.38;;;18.20;38.60;;;;;;5330380;26;112343;-55
2024/04/25 10:27:10;;;;;;;1.05;0.70;;;18.40;38.80;;;;;;5330060;26;110542;-55
2024/04/25 10:29:36;;;;;;;1.95;0.88;;;18.10;39.70;;;;;;5331168;26;110924;-55
2024/04/25 10:32:03;;;;;;;0.88;0.50;;;18.70;40.30;;;;;;5331524;26;110531;-54
2024/04/25 10:34:29;;;;;;;0.60;0.60;;;19.20;39.50;;;;;;5329964;26;112396;-55
2024/04/25 10:36:55;;;;;;;0.75;0.70;;;19.60;39.10;;;;;;5331305;26;110912;-55
2024/04/25 10:39:20;;;;;;;1.92;0.50;;;19.80;39.80;;;;;;5336618;26;110665;-55
2024/04/25 10:41:46;;;;;;;1.52;0.70;;;20.10;39.00;;;;;;5338645;26;110643;-55
2024/04/25 10:44:12;;;;;;;1.33;0.70;;;20.30;39.00;;;;;;5337237;26;112858;-55
2024/04/25 10:46:38;;;;;;;0.88;0.70;;;20.70;37.80;;;;;;5337327;26;110577;-55
2024/04/25 10:49:08;;;;;;;1.52;0.75;;;20.80;36.50;;;;;;5338350;26;110336;-55
2024/04/25 10:51:42;;;;;;;4.57;4.10;;;21.10;37.40;;;;;;5338476;26;110614;-55
2024/04/25 10:54:09;;;;;;;3.05;2.30;;;21.50;35.60;;;;;;5337098;26;112470;-55
2024/04/25 10:56:38;;;;;;;2.38;1.00;;;21.40;36.60;;;;;;5337006;26;110533;-55
2024/04/25 10:59:04;;;;;;;2.10;1.55;;;21.10;38.80;;;;;;5338104;26;111250;-55
2024/04/25 11:01:31;;;;;;;1.00;1.00;;;20.30;37.40;;;;;;5338178;26;110674;-55
2024/04/25 11:04:01;;;;;;;0.65;0.65;;;19.70;37.10;;;;;;5336853;26;111255;-55
2024/04/25 11:06:29;;;;;;;0.70;0.70;;;19.90;37.00;;;;;;5336813;26;110458;-55
2024/04/25 11:08:55;;;;;;;0.55;0.55;;;20.80;37.10;;;;;;5338169;26;110465;-55
2024/04/25 11:11:21;;;;;;;2.97;1.80;;;21.80;35.60;;;;;;5337865;26;110956;-55
2024/04/25 11:13:49;;;;;;;0.60;0.60;;;21.90;33.10;;;;;;5337141;26;111119;-55
2024/04/25 11:16:16;;;;;;;1.45;0.90;;;21.00;34.60;;;;;;5336499;26;111096;-55
2024/04/25 11:18:43;;;;;;;2.88;2.60;;;20.40;36.60;;;;;;5337454;26;110342;-55
2024/04/25 11:21:09;;;;;;;5.03;1.50;;;20.30;38.70;;;;;;5337596;26;110527;-55
2024/04/25 11:23:35;;;;;;;1.17;0.90;;;20.90;36.90;;;;;;5336481;26;112287;-55
2024/04/25 11:26:03;;;;;;;0.75;0.68;;;21.00;35.80;;;;;;5336604;26;110672;-55
2024/04/25 11:28:29;;;;;;;7.95;7.15;;;19.70;37.50;;;;;;5337268;26;110425;-55
2024/04/25 11:30:55;;;;;;;6.30;4.60;;;20.50;35.90;;;;;;5312997;26;110634;-55
2024/04/25 11:33:23;;;;;;;2.10;1.90;;;21.20;34.10;;;;;;5336832;26;112744;-55
2024/04/25 11:35:48;;;;;;;0.40;0.32;;;20.80;35.30;;;;;;5336099;26;110453;-55
2024/04/25 11:38:17;;;;;;;0.85;0.85;;;20.70;34.40;;;;;;5337697;26;111413;-55
2024/04/25 11:40:48;;;;;;;18.02;14.57;;;20.90;33.80;;;;;;5337297;26;110552;-55
2024/04/25 11:43:17;;;;;;;2.33;2.10;;;21.50;34.70;;;;;;5335553;26;111111;-55
2024/04/25 11:45:45;;;;;;;1.45;1.00;;;21.50;33.70;;;;;;5335927;26;111671;-55
2024/04/25 11:48:12;;;;;;;0.68;0.68;;;21.40;35.00;;;;;;5336489;26;110833;-55
2024/04/25 11:50:38;;;;;;;2.25;0.80;;;20.60;36.20;;;;;;5332868;26;110977;-55
2024/04/25 11:53:08;;;;;;;5.07;3.60;;;20.70;35.20;;;;;;5331986;26;112379;-55
2024/04/25 11:55:38;;;;;;;1.42;1.20;;;20.30;34.30;;;;;;5331860;26;111595;-55
2024/04/25 11:58:04;;;;;;;0.63;0.50;;;20.50;35.40;;;;;;5332543;26;110752;-55
2024/04/25 12:00:30;;;;;;;33.58;25.77;;;20.40;34.10;;;;;;5333175;26;110545;-55
2024/04/25 12:02:56;;;;;;;25.25;22.50;;;20.20;34.40;;;;;;5331123;26;112425;-55
2024/04/25 12:05:22;;;;;;;13.23;11.68;;;20.10;34.40;;;;;;5331101;26;110605;-55
2024/04/25 12:07:51;;;;;;;1.63;1.52;;;20.10;35.00;;;;;;5331850;26;110386;-55
2024/04/25 12:10:20;;;;;;;0.95;0.45;;;20.20;34.80;;;;;;5332748;26;110540;-55
2024/04/25 12:12:46;;;;;;;4.90;4.38;;;20.20;34.50;;;;;;5331438;26;111337;-55
2024/04/25 12:15:11;;;;;;;1.48;1.30;;;20.40;35.20;;;;;;5331849;26;111786;-55
2024/04/25 12:17:37;;;;;;;4.03;3.63;;;20.20;34.80;;;;;;5332744;26;110307;-55
2024/04/25 12:20:03;;;;;;;1.83;1.73;;;20.40;34.70;;;;;;5332483;26;110856;-55
2024/04/25 12:22:30;;;;;;;0.40;0.40;;;20.90;35.50;;;;;;5331703;26;113159;-55
2024/04/25 12:24:56;;;;;;;1.67;1.05;;;21.20;33.30;;;;;;5331656;26;110370;-55
2024/04/25 12:27:22;;;;;;;2.13;1.95;;;20.90;31.80;;;;;;5332412;26;110813;-55
2024/04/25 12:29:49;;;;;;;1.88;1.40;;;20.80;33.00;;;;;;5332783;26;110632;-55
2024/04/25 12:32:14;;;;;;;3.78;0.40;;;20.20;32.40;;;;;;5332032;26;113036;-55
2024/04/25 12:34:40;;;;;;;1.40;1.30;;;19.60;35.10;;;;;;5331243;26;112128;-55
2024/04/25 12:37:07;;;;;;;0.68;0.68;;;19.30;36.60;;;;;;5332285;26;110344;-55
2024/04/25 12:39:36;;;;;;;1.15;0.60;;;19.60;36.60;;;;;;5331072;26;110636;-55
2024/04/25 12:42:02;;;;;;;0.40;0.40;;;20.40;34.90;;;;;;5331551;26;111083;-55